sensor_id;sensor_type;location;lat;lon;timestamp;P1;durP1;ratioP1;P2;durP2;ratioP2
11835;SDS011;5977;51.972;7.640;2022-12-29T00:02:19;162.40;;;50.67;;
11835;SDS011;5977;51.972;7.640;2022-12-29T00:04:50;162.43;;;50.73;;
11835;SDS011;5977;51.972;7.640;2022-12-29T00:07:17;162.70;;;50.97;;
11835;SDS011;5977;51.972;7.640;2022-12-29T00:09:45;162.97;;;50.97;;
11835;SDS011;5977;51.972;7.640;2022-12-29T00:12:13;163.63;;;51.27;;
11835;SDS011;5977;51.972;7.640;2022-12-29T00:14:41;162.70;;;50.93;;
11835;SDS011;5977;51.972;7.640;2022-12-29T00:17:42;162.00;;;50.57;;
11835;SDS011;5977;51.972;7.640;2022-12-29T00:20:12;162.80;;;50.87;;
11835;SDS011;5977;51.972;7.640;2022-12-29T00:22:57;162.40;;;50.80;;
11835;SDS011;5977;51.972;7.640;2022-12-29T00:25:43;162.10;;;50.57;;
11835;SDS011;5977;51.972;7.640;2022-12-29T00:28:29;162.60;;;50.97;;
11835;SDS011;5977;51.972;7.640;2022-12-29T00:31:14;162.47;;;50.70;;
11835;SDS011;5977;51.972;7.640;2022-12-29T00:34:11;163.03;;;50.77;;
11835;SDS011;5977;51.972;7.640;2022-12-29T00:36:58;163.10;;;51.00;;
11835;SDS011;5977;51.972;7.640;2022-12-29T00:39:26;162.50;;;50.87;;
11835;SDS011;5977;51.972;7.640;2022-12-29T00:42:11;163.60;;;51.17;;
11835;SDS011;5977;51.972;7.640;2022-12-29T00:44:59;161.60;;;50.37;;
11835;SDS011;5977;51.972;7.640;2022-12-29T00:47:28;163.27;;;51.10;;
11835;SDS011;5977;51.972;7.640;2022-12-29T00:49:56;162.97;;;50.97;;
11835;SDS011;5977;51.972;7.640;2022-12-29T00:52:24;163.17;;;50.97;;
11835;SDS011;5977;51.972;7.640;2022-12-29T00:54:52;162.53;;;50.63;;
11835;SDS011;5977;51.972;7.640;2022-12-29T00:57:20;162.90;;;51.07;;
11835;SDS011;5977;51.972;7.640;2022-12-29T00:59:48;162.77;;;50.90;;
11835;SDS011;5977;51.972;7.640;2022-12-29T01:02:16;162.23;;;50.63;;
11835;SDS011;5977;51.972;7.640;2022-12-29T01:04:45;162.30;;;50.83;;
11835;SDS011;5977;51.972;7.640;2022-12-29T01:07:15;162.07;;;50.53;;
11835;SDS011;5977;51.972;7.640;2022-12-29T01:09:45;161.87;;;50.50;;
11835;SDS011;5977;51.972;7.640;2022-12-29T01:12:32;162.20;;;50.57;;
11835;SDS011;5977;51.972;7.640;2022-12-29T01:15:12;162.23;;;50.73;;
11835;SDS011;5977;51.972;7.640;2022-12-29T01:17:41;162.50;;;50.57;;
11835;SDS011;5977;51.972;7.640;2022-12-29T01:20:09;162.30;;;50.60;;
11835;SDS011;5977;51.972;7.640;2022-12-29T01:22:39;162.07;;;50.53;;
11835;SDS011;5977;51.972;7.640;2022-12-29T01:25:09;162.77;;;50.70;;
11835;SDS011;5977;51.972;7.640;2022-12-29T01:27:37;162.80;;;50.73;;
11835;SDS011;5977;51.972;7.640;2022-12-29T01:30:06;161.30;;;50.30;;
11835;SDS011;5977;51.972;7.640;2022-12-29T01:32:34;162.27;;;50.67;;
11835;SDS011;5977;51.972;7.640;2022-12-29T01:35:02;161.43;;;50.30;;
11835;SDS011;5977;51.972;7.640;2022-12-29T01:37:33;162.20;;;50.57;;
11835;SDS011;5977;51.972;7.640;2022-12-29T01:40:01;162.77;;;50.70;;
11835;SDS011;5977;51.972;7.640;2022-12-29T01:42:32;161.87;;;50.53;;
11835;SDS011;5977;51.972;7.640;2022-12-29T01:45:00;161.63;;;50.47;;
11835;SDS011;5977;51.972;7.640;2022-12-29T01:47:30;161.43;;;50.40;;
11835;SDS011;5977;51.972;7.640;2022-12-29T01:50:04;162.47;;;50.77;;
11835;SDS011;5977;51.972;7.640;2022-12-29T01:52:36;162.50;;;50.67;;
11835;SDS011;5977;51.972;7.640;2022-12-29T01:55:07;161.90;;;50.53;;
11835;SDS011;5977;51.972;7.640;2022-12-29T01:57:39;162.37;;;50.70;;
11835;SDS011;5977;51.972;7.640;2022-12-29T02:00:13;162.40;;;50.73;;
11835;SDS011;5977;51.972;7.640;2022-12-29T02:02:46;162.60;;;50.77;;
11835;SDS011;5977;51.972;7.640;2022-12-29T02:05:19;161.97;;;50.53;;
11835;SDS011;5977;51.972;7.640;2022-12-29T02:07:52;162.47;;;50.90;;
11835;SDS011;5977;51.972;7.640;2022-12-29T02:10:21;162.67;;;50.87;;
11835;SDS011;5977;51.972;7.640;2022-12-29T02:12:53;162.40;;;50.57;;
11835;SDS011;5977;51.972;7.640;2022-12-29T02:15:24;162.60;;;50.90;;
11835;SDS011;5977;51.972;7.640;2022-12-29T02:18:03;162.57;;;50.73;;
11835;SDS011;5977;51.972;7.640;2022-12-29T02:20:55;161.70;;;50.67;;
11835;SDS011;5977;51.972;7.640;2022-12-29T02:24:02;162.50;;;50.67;;
11835;SDS011;5977;51.972;7.640;2022-12-29T02:26:49;161.90;;;50.50;;
11835;SDS011;5977;51.972;7.640;2022-12-29T02:29:40;161.90;;;50.50;;
11835;SDS011;5977;51.972;7.640;2022-12-29T02:32:30;162.67;;;50.93;;
11835;SDS011;5977;51.972;7.640;2022-12-29T02:35:07;161.60;;;50.40;;
11835;SDS011;5977;51.972;7.640;2022-12-29T02:37:42;162.17;;;50.47;;
11835;SDS011;5977;51.972;7.640;2022-12-29T02:40:18;162.30;;;50.60;;
11835;SDS011;5977;51.972;7.640;2022-12-29T02:42:51;162.20;;;50.43;;
11835;SDS011;5977;51.972;7.640;2022-12-29T02:45:39;161.93;;;50.57;;
11835;SDS011;5977;51.972;7.640;2022-12-29T02:48:16;162.70;;;50.80;;
11835;SDS011;5977;51.972;7.640;2022-12-29T02:50:51;162.83;;;51.10;;
11835;SDS011;5977;51.972;7.640;2022-12-29T02:53:23;162.63;;;50.80;;
11835;SDS011;5977;51.972;7.640;2022-12-29T02:56:07;162.30;;;50.77;;
11835;SDS011;5977;51.972;7.640;2022-12-29T02:58:35;162.67;;;50.77;;
11835;SDS011;5977;51.972;7.640;2022-12-29T03:01:06;162.67;;;50.77;;
11835;SDS011;5977;51.972;7.640;2022-12-29T03:03:47;162.40;;;50.70;;
11835;SDS011;5977;51.972;7.640;2022-12-29T03:06:30;161.53;;;50.37;;
11835;SDS011;5977;51.972;7.640;2022-12-29T03:09:11;162.40;;;50.90;;
11835;SDS011;5977;51.972;7.640;2022-12-29T03:11:48;163.13;;;50.87;;
11835;SDS011;5977;51.972;7.640;2022-12-29T03:14:39;163.23;;;51.00;;
11835;SDS011;5977;51.972;7.640;2022-12-29T03:17:36;162.53;;;50.80;;
11835;SDS011;5977;51.972;7.640;2022-12-29T03:20:13;163.37;;;50.93;;
11835;SDS011;5977;51.972;7.640;2022-12-29T03:22:51;162.23;;;50.67;;
11835;SDS011;5977;51.972;7.640;2022-12-29T03:25:29;162.93;;;50.90;;
11835;SDS011;5977;51.972;7.640;2022-12-29T03:28:01;162.73;;;50.97;;
11835;SDS011;5977;51.972;7.640;2022-12-29T03:30:37;163.07;;;50.93;;
11835;SDS011;5977;51.972;7.640;2022-12-29T03:33:09;163.37;;;51.00;;
11835;SDS011;5977;51.972;7.640;2022-12-29T03:35:42;162.67;;;50.77;;
11835;SDS011;5977;51.972;7.640;2022-12-29T03:38:13;163.20;;;50.97;;
11835;SDS011;5977;51.972;7.640;2022-12-29T03:40:45;163.23;;;50.83;;
11835;SDS011;5977;51.972;7.640;2022-12-29T03:43:16;163.97;;;51.33;;
11835;SDS011;5977;51.972;7.640;2022-12-29T03:45:46;162.87;;;50.93;;
11835;SDS011;5977;51.972;7.640;2022-12-29T03:48:14;163.90;;;51.27;;
11835;SDS011;5977;51.972;7.640;2022-12-29T03:50:44;164.07;;;51.23;;
11835;SDS011;5977;51.972;7.640;2022-12-29T03:53:12;163.53;;;51.03;;
11835;SDS011;5977;51.972;7.640;2022-12-29T03:55:40;163.90;;;51.07;;
11835;SDS011;5977;51.972;7.640;2022-12-29T03:58:10;163.43;;;50.87;;
11835;SDS011;5977;51.972;7.640;2022-12-29T04:01:07;163.57;;;50.83;;
11835;SDS011;5977;51.972;7.640;2022-12-29T04:03:37;162.90;;;50.80;;
11835;SDS011;5977;51.972;7.640;2022-12-29T04:06:07;163.87;;;51.23;;
11835;SDS011;5977;51.972;7.640;2022-12-29T04:08:45;163.90;;;51.20;;
11835;SDS011;5977;51.972;7.640;2022-12-29T04:11:12;164.10;;;51.10;;
11835;SDS011;5977;51.972;7.640;2022-12-29T04:13:41;164.13;;;51.27;;
11835;SDS011;5977;51.972;7.640;2022-12-29T04:16:12;164.37;;;51.30;;
11835;SDS011;5977;51.972;7.640;2022-12-29T04:18:41;164.07;;;51.20;;
11835;SDS011;5977;51.972;7.640;2022-12-29T04:21:10;163.93;;;51.13;;
11835;SDS011;5977;51.972;7.640;2022-12-29T04:23:40;163.97;;;51.17;;
11835;SDS011;5977;51.972;7.640;2022-12-29T04:26:09;163.53;;;50.97;;
11835;SDS011;5977;51.972;7.640;2022-12-29T04:28:59;163.13;;;50.67;;
11835;SDS011;5977;51.972;7.640;2022-12-29T04:31:41;163.27;;;50.83;;
11835;SDS011;5977;51.972;7.640;2022-12-29T04:34:09;163.53;;;51.00;;
11835;SDS011;5977;51.972;7.640;2022-12-29T04:36:39;163.70;;;51.17;;
11835;SDS011;5977;51.972;7.640;2022-12-29T04:39:07;163.63;;;51.00;;
11835;SDS011;5977;51.972;7.640;2022-12-29T04:41:37;163.77;;;51.00;;
11835;SDS011;5977;51.972;7.640;2022-12-29T04:44:07;162.87;;;50.70;;
11835;SDS011;5977;51.972;7.640;2022-12-29T04:47:04;162.90;;;50.63;;
11835;SDS011;5977;51.972;7.640;2022-12-29T04:49:53;163.23;;;50.83;;
11835;SDS011;5977;51.972;7.640;2022-12-29T04:52:42;162.50;;;50.63;;
11835;SDS011;5977;51.972;7.640;2022-12-29T04:55:12;163.73;;;51.07;;
11835;SDS011;5977;51.972;7.640;2022-12-29T04:57:40;163.17;;;51.00;;
11835;SDS011;5977;51.972;7.640;2022-12-29T05:00:12;163.07;;;50.93;;
11835;SDS011;5977;51.972;7.640;2022-12-29T05:02:41;162.97;;;50.87;;
11835;SDS011;5977;51.972;7.640;2022-12-29T05:05:10;163.20;;;50.80;;
11835;SDS011;5977;51.972;7.640;2022-12-29T05:07:42;163.23;;;50.73;;
11835;SDS011;5977;51.972;7.640;2022-12-29T05:10:10;163.07;;;50.97;;
11835;SDS011;5977;51.972;7.640;2022-12-29T05:12:39;162.73;;;50.67;;
11835;SDS011;5977;51.972;7.640;2022-12-29T05:15:08;162.73;;;50.60;;
11835;SDS011;5977;51.972;7.640;2022-12-29T05:17:37;162.50;;;50.53;;
11835;SDS011;5977;51.972;7.640;2022-12-29T05:20:07;163.53;;;51.07;;
11835;SDS011;5977;51.972;7.640;2022-12-29T05:22:36;162.97;;;50.87;;
11835;SDS011;5977;51.972;7.640;2022-12-29T05:25:06;163.00;;;50.93;;
11835;SDS011;5977;51.972;7.640;2022-12-29T05:27:50;162.57;;;50.63;;
11835;SDS011;5977;51.972;7.640;2022-12-29T05:30:38;162.63;;;50.70;;
11835;SDS011;5977;51.972;7.640;2022-12-29T05:33:06;161.60;;;50.17;;
11835;SDS011;5977;51.972;7.640;2022-12-29T05:35:38;162.23;;;50.63;;
11835;SDS011;5977;51.972;7.640;2022-12-29T05:38:06;162.83;;;50.70;;
11835;SDS011;5977;51.972;7.640;2022-12-29T05:40:35;162.73;;;50.93;;
11835;SDS011;5977;51.972;7.640;2022-12-29T05:43:11;162.73;;;50.73;;
11835;SDS011;5977;51.972;7.640;2022-12-29T05:45:52;162.73;;;50.63;;
11835;SDS011;5977;51.972;7.640;2022-12-29T05:48:45;162.70;;;50.67;;
11835;SDS011;5977;51.972;7.640;2022-12-29T05:51:19;162.63;;;50.70;;
11835;SDS011;5977;51.972;7.640;2022-12-29T05:53:49;161.67;;;50.17;;
11835;SDS011;5977;51.972;7.640;2022-12-29T05:56:18;162.33;;;50.57;;
11835;SDS011;5977;51.972;7.640;2022-12-29T05:58:53;162.90;;;50.70;;
11835;SDS011;5977;51.972;7.640;2022-12-29T06:01:21;162.23;;;50.47;;
11835;SDS011;5977;51.972;7.640;2022-12-29T06:03:49;162.43;;;50.63;;
11835;SDS011;5977;51.972;7.640;2022-12-29T06:06:19;162.33;;;50.53;;
11835;SDS011;5977;51.972;7.640;2022-12-29T06:08:47;162.37;;;50.40;;
11835;SDS011;5977;51.972;7.640;2022-12-29T06:11:18;162.77;;;50.70;;
11835;SDS011;5977;51.972;7.640;2022-12-29T06:13:51;162.27;;;50.63;;
11835;SDS011;5977;51.972;7.640;2022-12-29T06:16:19;162.97;;;50.80;;
11835;SDS011;5977;51.972;7.640;2022-12-29T06:18:49;163.03;;;51.00;;
11835;SDS011;5977;51.972;7.640;2022-12-29T06:21:17;163.07;;;50.90;;
11835;SDS011;5977;51.972;7.640;2022-12-29T06:23:45;162.37;;;50.63;;
11835;SDS011;5977;51.972;7.640;2022-12-29T06:26:13;162.77;;;50.77;;
11835;SDS011;5977;51.972;7.640;2022-12-29T06:28:43;162.63;;;50.77;;
11835;SDS011;5977;51.972;7.640;2022-12-29T06:31:11;162.57;;;50.80;;
11835;SDS011;5977;51.972;7.640;2022-12-29T06:33:39;162.20;;;50.80;;
11835;SDS011;5977;51.972;7.640;2022-12-29T06:36:08;161.80;;;50.43;;
11835;SDS011;5977;51.972;7.640;2022-12-29T06:38:36;162.07;;;50.63;;
11835;SDS011;5977;51.972;7.640;2022-12-29T06:41:04;162.80;;;50.80;;
11835;SDS011;5977;51.972;7.640;2022-12-29T06:43:46;162.47;;;50.57;;
11835;SDS011;5977;51.972;7.640;2022-12-29T06:46:19;162.20;;;50.63;;
11835;SDS011;5977;51.972;7.640;2022-12-29T06:48:47;161.93;;;50.57;;
11835;SDS011;5977;51.972;7.640;2022-12-29T06:51:15;162.30;;;50.47;;
11835;SDS011;5977;51.972;7.640;2022-12-29T06:53:43;162.67;;;50.73;;
11835;SDS011;5977;51.972;7.640;2022-12-29T06:56:11;162.77;;;50.80;;
11835;SDS011;5977;51.972;7.640;2022-12-29T06:58:39;162.60;;;50.57;;
11835;SDS011;5977;51.972;7.640;2022-12-29T07:01:08;163.30;;;51.17;;
11835;SDS011;5977;51.972;7.640;2022-12-29T07:03:36;163.23;;;51.03;;
11835;SDS011;5977;51.972;7.640;2022-12-29T07:06:04;162.07;;;50.53;;
11835;SDS011;5977;51.972;7.640;2022-12-29T07:08:32;161.97;;;50.57;;
11835;SDS011;5977;51.972;7.640;2022-12-29T07:11:00;162.47;;;50.83;;
11835;SDS011;5977;51.972;7.640;2022-12-29T07:13:28;162.13;;;50.47;;
11835;SDS011;5977;51.972;7.640;2022-12-29T07:15:56;161.77;;;50.40;;
11835;SDS011;5977;51.972;7.640;2022-12-29T07:18:25;162.00;;;50.37;;
11835;SDS011;5977;51.972;7.640;2022-12-29T07:20:53;161.60;;;50.37;;
11835;SDS011;5977;51.972;7.640;2022-12-29T07:23:21;162.30;;;50.73;;
11835;SDS011;5977;51.972;7.640;2022-12-29T07:25:48;162.67;;;50.87;;
11835;SDS011;5977;51.972;7.640;2022-12-29T07:28:16;162.63;;;50.67;;
11835;SDS011;5977;51.972;7.640;2022-12-29T07:30:45;162.70;;;50.93;;
11835;SDS011;5977;51.972;7.640;2022-12-29T07:33:13;162.27;;;50.73;;
11835;SDS011;5977;51.972;7.640;2022-12-29T07:35:42;162.10;;;50.63;;
11835;SDS011;5977;51.972;7.640;2022-12-29T07:38:10;161.90;;;50.33;;
11835;SDS011;5977;51.972;7.640;2022-12-29T07:40:38;162.47;;;50.70;;
11835;SDS011;5977;51.972;7.640;2022-12-29T07:43:06;162.93;;;50.97;;
11835;SDS011;5977;51.972;7.640;2022-12-29T07:45:42;162.67;;;50.77;;
11835;SDS011;5977;51.972;7.640;2022-12-29T07:48:10;163.03;;;50.90;;
11835;SDS011;5977;51.972;7.640;2022-12-29T07:50:38;162.53;;;50.87;;
11835;SDS011;5977;51.972;7.640;2022-12-29T07:53:07;162.10;;;50.60;;
11835;SDS011;5977;51.972;7.640;2022-12-29T07:55:35;162.43;;;50.70;;
11835;SDS011;5977;51.972;7.640;2022-12-29T07:58:03;162.97;;;50.83;;
11835;SDS011;5977;51.972;7.640;2022-12-29T08:00:31;162.03;;;50.50;;
11835;SDS011;5977;51.972;7.640;2022-12-29T08:02:59;162.53;;;50.77;;
11835;SDS011;5977;51.972;7.640;2022-12-29T08:05:27;161.87;;;50.20;;
11835;SDS011;5977;51.972;7.640;2022-12-29T08:07:55;163.27;;;51.07;;
11835;SDS011;5977;51.972;7.640;2022-12-29T08:10:24;162.60;;;50.90;;
11835;SDS011;5977;51.972;7.640;2022-12-29T08:12:52;162.60;;;50.60;;
11835;SDS011;5977;51.972;7.640;2022-12-29T08:15:20;162.30;;;50.63;;
11835;SDS011;5977;51.972;7.640;2022-12-29T08:17:55;161.67;;;50.40;;
11835;SDS011;5977;51.972;7.640;2022-12-29T08:20:23;161.43;;;50.53;;
11835;SDS011;5977;51.972;7.640;2022-12-29T08:22:51;161.33;;;50.37;;
11835;SDS011;5977;51.972;7.640;2022-12-29T08:25:19;161.03;;;50.37;;
11835;SDS011;5977;51.972;7.640;2022-12-29T08:27:48;160.50;;;50.13;;
11835;SDS011;5977;51.972;7.640;2022-12-29T08:30:17;160.57;;;50.17;;
11835;SDS011;5977;51.972;7.640;2022-12-29T08:32:45;160.10;;;49.87;;
11835;SDS011;5977;51.972;7.640;2022-12-29T08:35:13;160.33;;;50.07;;
11835;SDS011;5977;51.972;7.640;2022-12-29T08:37:41;159.10;;;49.50;;
11835;SDS011;5977;51.972;7.640;2022-12-29T08:40:09;159.93;;;49.80;;
11835;SDS011;5977;51.972;7.640;2022-12-29T08:42:37;159.80;;;49.87;;
11835;SDS011;5977;51.972;7.640;2022-12-29T08:45:08;160.23;;;50.20;;
11835;SDS011;5977;51.972;7.640;2022-12-29T08:47:37;160.13;;;50.03;;
11835;SDS011;5977;51.972;7.640;2022-12-29T08:50:06;160.20;;;50.00;;
11835;SDS011;5977;51.972;7.640;2022-12-29T08:52:34;160.23;;;50.07;;
11835;SDS011;5977;51.972;7.640;2022-12-29T08:55:02;160.13;;;49.97;;
11835;SDS011;5977;51.972;7.640;2022-12-29T08:57:30;159.57;;;49.73;;
11835;SDS011;5977;51.972;7.640;2022-12-29T09:00:08;159.80;;;49.83;;
11835;SDS011;5977;51.972;7.640;2022-12-29T09:02:37;160.93;;;50.40;;
11835;SDS011;5977;51.972;7.640;2022-12-29T09:05:06;160.37;;;50.17;;
11835;SDS011;5977;51.972;7.640;2022-12-29T09:07:35;160.77;;;50.30;;
11835;SDS011;5977;51.972;7.640;2022-12-29T09:10:04;161.47;;;50.57;;
11835;SDS011;5977;51.972;7.640;2022-12-29T09:12:32;161.20;;;50.30;;
11835;SDS011;5977;51.972;7.640;2022-12-29T09:15:02;162.23;;;50.80;;
11835;SDS011;5977;51.972;7.640;2022-12-29T09:17:32;162.30;;;50.73;;
11835;SDS011;5977;51.972;7.640;2022-12-29T09:20:09;162.93;;;51.07;;
11835;SDS011;5977;51.972;7.640;2022-12-29T09:22:38;162.57;;;50.90;;
11835;SDS011;5977;51.972;7.640;2022-12-29T09:25:06;162.97;;;51.10;;
11835;SDS011;5977;51.972;7.640;2022-12-29T09:27:35;163.03;;;50.73;;
11835;SDS011;5977;51.972;7.640;2022-12-29T09:30:04;163.30;;;51.03;;
11835;SDS011;5977;51.972;7.640;2022-12-29T09:32:34;163.80;;;51.20;;
11835;SDS011;5977;51.972;7.640;2022-12-29T09:35:10;164.27;;;51.37;;
11835;SDS011;5977;51.972;7.640;2022-12-29T09:37:38;163.70;;;51.20;;
11835;SDS011;5977;51.972;7.640;2022-12-29T09:40:06;163.07;;;50.93;;
11835;SDS011;5977;51.972;7.640;2022-12-29T09:42:43;163.67;;;51.07;;
11835;SDS011;5977;51.972;7.640;2022-12-29T09:45:18;164.27;;;51.10;;
11835;SDS011;5977;51.972;7.640;2022-12-29T09:47:54;163.33;;;50.90;;
11835;SDS011;5977;51.972;7.640;2022-12-29T09:50:23;163.10;;;50.63;;
11835;SDS011;5977;51.972;7.640;2022-12-29T09:52:58;163.73;;;51.10;;
11835;SDS011;5977;51.972;7.640;2022-12-29T09:55:34;163.73;;;51.00;;
11835;SDS011;5977;51.972;7.640;2022-12-29T09:58:05;164.40;;;51.27;;
11835;SDS011;5977;51.972;7.640;2022-12-29T10:00:41;164.07;;;51.13;;
11835;SDS011;5977;51.972;7.640;2022-12-29T10:03:22;163.03;;;50.87;;
11835;SDS011;5977;51.972;7.640;2022-12-29T10:05:55;163.67;;;51.17;;
11835;SDS011;5977;51.972;7.640;2022-12-29T10:08:30;163.97;;;51.17;;
11835;SDS011;5977;51.972;7.640;2022-12-29T10:11:06;163.07;;;51.00;;
11835;SDS011;5977;51.972;7.640;2022-12-29T10:13:48;163.17;;;50.97;;
11835;SDS011;5977;51.972;7.640;2022-12-29T10:16:30;162.97;;;50.87;;
11835;SDS011;5977;51.972;7.640;2022-12-29T10:19:16;163.47;;;50.83;;
11835;SDS011;5977;51.972;7.640;2022-12-29T10:22:09;163.20;;;50.87;;
11835;SDS011;5977;51.972;7.640;2022-12-29T10:24:49;163.50;;;51.00;;
11835;SDS011;5977;51.972;7.640;2022-12-29T10:27:20;163.57;;;51.10;;
11835;SDS011;5977;51.972;7.640;2022-12-29T10:29:49;163.33;;;50.87;;
11835;SDS011;5977;51.972;7.640;2022-12-29T10:32:26;164.10;;;51.33;;
11835;SDS011;5977;51.972;7.640;2022-12-29T10:35:00;164.30;;;51.03;;
11835;SDS011;5977;51.972;7.640;2022-12-29T10:37:34;163.67;;;51.07;;
11835;SDS011;5977;51.972;7.640;2022-12-29T10:40:12;164.07;;;51.10;;
11835;SDS011;5977;51.972;7.640;2022-12-29T10:42:47;163.87;;;50.73;;
11835;SDS011;5977;51.972;7.640;2022-12-29T10:45:19;164.50;;;51.23;;
11835;SDS011;5977;51.972;7.640;2022-12-29T10:47:52;163.87;;;51.03;;
11835;SDS011;5977;51.972;7.640;2022-12-29T10:50:25;164.40;;;51.37;;
11835;SDS011;5977;51.972;7.640;2022-12-29T10:52:55;164.37;;;51.30;;
11835;SDS011;5977;51.972;7.640;2022-12-29T10:55:27;164.03;;;51.13;;
11835;SDS011;5977;51.972;7.640;2022-12-29T10:57:59;164.63;;;51.27;;
11835;SDS011;5977;51.972;7.640;2022-12-29T11:00:31;165.03;;;51.50;;
11835;SDS011;5977;51.972;7.640;2022-12-29T11:03:06;164.57;;;51.30;;
11835;SDS011;5977;51.972;7.640;2022-12-29T11:05:50;164.37;;;51.17;;
11835;SDS011;5977;51.972;7.640;2022-12-29T11:08:24;165.30;;;51.50;;
11835;SDS011;5977;51.972;7.640;2022-12-29T11:10:58;165.63;;;51.53;;
11835;SDS011;5977;51.972;7.640;2022-12-29T11:13:29;165.30;;;51.37;;
11835;SDS011;5977;51.972;7.640;2022-12-29T11:16:04;165.13;;;51.30;;
11835;SDS011;5977;51.972;7.640;2022-12-29T11:18:33;165.20;;;51.50;;
11835;SDS011;5977;51.972;7.640;2022-12-29T11:21:05;164.60;;;51.27;;
11835;SDS011;5977;51.972;7.640;2022-12-29T11:23:35;165.77;;;51.63;;
11835;SDS011;5977;51.972;7.640;2022-12-29T11:26:05;165.63;;;51.57;;
11835;SDS011;5977;51.972;7.640;2022-12-29T11:28:45;165.60;;;51.60;;
11835;SDS011;5977;51.972;7.640;2022-12-29T11:31:17;165.30;;;51.60;;
11835;SDS011;5977;51.972;7.640;2022-12-29T11:33:46;165.00;;;51.33;;
11835;SDS011;5977;51.972;7.640;2022-12-29T11:36:16;164.60;;;51.30;;
11835;SDS011;5977;51.972;7.640;2022-12-29T11:38:48;164.73;;;51.27;;
11835;SDS011;5977;51.972;7.640;2022-12-29T11:41:21;164.50;;;51.33;;
11835;SDS011;5977;51.972;7.640;2022-12-29T11:43:51;164.77;;;51.47;;
11835;SDS011;5977;51.972;7.640;2022-12-29T11:46:20;163.83;;;50.90;;
11835;SDS011;5977;51.972;7.640;2022-12-29T11:48:51;164.33;;;51.10;;
11835;SDS011;5977;51.972;7.640;2022-12-29T11:51:25;163.97;;;51.10;;
11835;SDS011;5977;51.972;7.640;2022-12-29T11:53:55;164.23;;;51.33;;
11835;SDS011;5977;51.972;7.640;2022-12-29T11:56:35;163.87;;;51.03;;
11835;SDS011;5977;51.972;7.640;2022-12-29T12:02:21;164.50;;;51.17;;
11835;SDS011;5977;51.972;7.640;2022-12-29T12:05:10;165.37;;;51.53;;
11835;SDS011;5977;51.972;7.640;2022-12-29T12:07:47;165.57;;;51.50;;
11835;SDS011;5977;51.972;7.640;2022-12-29T12:10:21;164.70;;;51.30;;
11835;SDS011;5977;51.972;7.640;2022-12-29T12:12:53;165.20;;;51.33;;
11835;SDS011;5977;51.972;7.640;2022-12-29T12:15:29;165.23;;;51.40;;
11835;SDS011;5977;51.972;7.640;2022-12-29T12:18:11;164.50;;;51.03;;
11835;SDS011;5977;51.972;7.640;2022-12-29T12:20:44;164.73;;;51.37;;
11835;SDS011;5977;51.972;7.640;2022-12-29T12:23:25;165.30;;;51.33;;
11835;SDS011;5977;51.972;7.640;2022-12-29T12:26:02;165.10;;;51.20;;
11835;SDS011;5977;51.972;7.640;2022-12-29T12:28:39;165.03;;;51.27;;
11835;SDS011;5977;51.972;7.640;2022-12-29T12:31:21;163.30;;;50.70;;
11835;SDS011;5977;51.972;7.640;2022-12-29T12:34:09;164.83;;;51.37;;
11835;SDS011;5977;51.972;7.640;2022-12-29T12:36:49;163.73;;;50.87;;
11835;SDS011;5977;51.972;7.640;2022-12-29T12:39:43;163.67;;;50.87;;
11835;SDS011;5977;51.972;7.640;2022-12-29T12:42:21;164.77;;;51.17;;
11835;SDS011;5977;51.972;7.640;2022-12-29T12:45:04;164.40;;;51.07;;
11835;SDS011;5977;51.972;7.640;2022-12-29T12:47:57;163.47;;;50.80;;
11835;SDS011;5977;51.972;7.640;2022-12-29T12:50:42;163.60;;;50.90;;
11835;SDS011;5977;51.972;7.640;2022-12-29T12:53:24;163.93;;;50.93;;
11835;SDS011;5977;51.972;7.640;2022-12-29T12:56:07;163.47;;;50.97;;
11835;SDS011;5977;51.972;7.640;2022-12-29T12:58:50;163.33;;;50.67;;
11835;SDS011;5977;51.972;7.640;2022-12-29T13:01:25;163.20;;;50.80;;
11835;SDS011;5977;51.972;7.640;2022-12-29T13:04:08;163.93;;;51.00;;
11835;SDS011;5977;51.972;7.640;2022-12-29T13:06:51;163.17;;;50.83;;
11835;SDS011;5977;51.972;7.640;2022-12-29T13:09:32;163.67;;;50.83;;
11835;SDS011;5977;51.972;7.640;2022-12-29T13:12:19;163.47;;;50.80;;
11835;SDS011;5977;51.972;7.640;2022-12-29T13:14:59;164.67;;;51.23;;
11835;SDS011;5977;51.972;7.640;2022-12-29T13:17:36;164.77;;;51.33;;
11835;SDS011;5977;51.972;7.640;2022-12-29T13:20:16;164.37;;;51.00;;
11835;SDS011;5977;51.972;7.640;2022-12-29T13:22:54;164.10;;;50.93;;
11835;SDS011;5977;51.972;7.640;2022-12-29T13:25:29;163.70;;;50.90;;
11835;SDS011;5977;51.972;7.640;2022-12-29T13:28:06;163.53;;;50.77;;
11835;SDS011;5977;51.972;7.640;2022-12-29T13:30:43;163.87;;;51.23;;
11835;SDS011;5977;51.972;7.640;2022-12-29T13:33:17;163.73;;;50.93;;
11835;SDS011;5977;51.972;7.640;2022-12-29T13:35:54;163.93;;;51.00;;
11835;SDS011;5977;51.972;7.640;2022-12-29T13:38:29;163.27;;;50.77;;
11835;SDS011;5977;51.972;7.640;2022-12-29T13:41:00;163.27;;;50.63;;
11835;SDS011;5977;51.972;7.640;2022-12-29T13:43:34;163.03;;;50.90;;
11835;SDS011;5977;51.972;7.640;2022-12-29T13:46:07;162.97;;;50.67;;
11835;SDS011;5977;51.972;7.640;2022-12-29T13:48:39;162.77;;;50.53;;
11835;SDS011;5977;51.972;7.640;2022-12-29T13:51:13;162.80;;;50.60;;
11835;SDS011;5977;51.972;7.640;2022-12-29T13:53:51;162.87;;;50.67;;
11835;SDS011;5977;51.972;7.640;2022-12-29T13:56:36;162.50;;;50.53;;
11835;SDS011;5977;51.972;7.640;2022-12-29T13:59:11;162.50;;;50.43;;
11835;SDS011;5977;51.972;7.640;2022-12-29T14:01:46;163.23;;;50.87;;
11835;SDS011;5977;51.972;7.640;2022-12-29T14:04:21;162.97;;;50.77;;
11835;SDS011;5977;51.972;7.640;2022-12-29T14:07:00;162.47;;;50.57;;
11835;SDS011;5977;51.972;7.640;2022-12-29T14:09:40;162.40;;;50.60;;
11835;SDS011;5977;51.972;7.640;2022-12-29T14:12:23;161.90;;;50.30;;
11835;SDS011;5977;51.972;7.640;2022-12-29T14:15:16;162.17;;;50.47;;
11835;SDS011;5977;51.972;7.640;2022-12-29T14:20:36;161.47;;;50.03;;
11835;SDS011;5977;51.972;7.640;2022-12-29T14:23:16;160.93;;;50.00;;
11835;SDS011;5977;51.972;7.640;2022-12-29T14:25:57;161.67;;;50.40;;
11835;SDS011;5977;51.972;7.640;2022-12-29T14:28:38;161.23;;;50.17;;
11835;SDS011;5977;51.972;7.640;2022-12-29T14:34:27;161.50;;;50.30;;
11835;SDS011;5977;51.972;7.640;2022-12-29T14:37:04;161.47;;;50.40;;
11835;SDS011;5977;51.972;7.640;2022-12-29T14:39:48;160.93;;;50.17;;
11835;SDS011;5977;51.972;7.640;2022-12-29T14:42:18;160.90;;;50.00;;
11835;SDS011;5977;51.972;7.640;2022-12-29T14:44:49;160.93;;;50.13;;
11835;SDS011;5977;51.972;7.640;2022-12-29T14:47:22;160.63;;;50.03;;
11835;SDS011;5977;51.972;7.640;2022-12-29T14:49:54;159.93;;;49.70;;
11835;SDS011;5977;51.972;7.640;2022-12-29T14:52:23;161.57;;;50.40;;
11835;SDS011;5977;51.972;7.640;2022-12-29T14:54:53;160.47;;;49.80;;
11835;SDS011;5977;51.972;7.640;2022-12-29T14:57:29;160.73;;;50.07;;
11835;SDS011;5977;51.972;7.640;2022-12-29T15:00:12;160.67;;;50.00;;
11835;SDS011;5977;51.972;7.640;2022-12-29T15:02:46;160.40;;;49.90;;
11835;SDS011;5977;51.972;7.640;2022-12-29T15:05:31;161.33;;;50.20;;
11835;SDS011;5977;51.972;7.640;2022-12-29T15:08:02;160.93;;;50.20;;
11835;SDS011;5977;51.972;7.640;2022-12-29T15:10:35;160.40;;;49.87;;